createdAt,value
2023-02-03T00:00:11.342Z,5.22
2023-02-03T00:02:40.850Z,5.78
2023-02-03T00:05:13.359Z,4.80
2023-02-03T00:07:42.611Z,5.25
2023-02-03T00:10:12.068Z,4.97
2023-02-03T00:12:40.205Z,6.32
2023-02-03T00:15:10.186Z,4.80
2023-02-03T00:17:38.295Z,6.93
2023-02-03T00:20:08.679Z,6.65
2023-02-03T00:22:36.947Z,6.68
2023-02-03T00:25:05.784Z,6.50
2023-02-03T00:27:34.026Z,7.05
2023-02-03T00:30:02.675Z,6.70
2023-02-03T00:32:30.950Z,6.68
2023-02-03T00:35:01.560Z,8.43
2023-02-03T00:37:31.217Z,7.07
2023-02-03T00:39:59.523Z,8.10
2023-02-03T00:42:29.618Z,7.40
2023-02-03T00:45:00.002Z,8.10
2023-02-03T00:47:28.304Z,7.80
2023-02-03T00:49:56.293Z,7.45
2023-02-03T00:52:24.468Z,7.80
2023-02-03T00:54:53.844Z,8.82
2023-02-03T00:57:21.988Z,7.25
2023-02-03T00:59:50.240Z,8.38
2023-02-03T01:02:18.792Z,8.40
2023-02-03T01:04:47.286Z,8.80
2023-02-03T01:07:16.836Z,9.15
2023-02-03T01:09:44.954Z,8.88
2023-02-03T01:12:15.285Z,10.57
2023-02-03T01:14:43.467Z,9.73
2023-02-03T01:17:11.652Z,8.77
2023-02-03T01:19:40.039Z,10.13
2023-02-03T01:22:08.150Z,10.60
2023-02-03T01:24:36.294Z,10.27
2023-02-03T01:27:06.493Z,10.05
2023-02-03T01:29:36.107Z,9.93
2023-02-03T01:32:04.617Z,9.20
2023-02-03T01:34:32.818Z,9.55
2023-02-03T01:37:01.060Z,10.13
2023-02-03T01:39:32.968Z,9.65
2023-02-03T01:42:01.006Z,8.13
2023-02-03T01:44:45.632Z,8.73
2023-02-03T01:47:27.507Z,8.15
2023-02-03T01:49:59.640Z,8.43
2023-02-03T01:54:58.129Z,6.88
2023-02-03T01:57:31.120Z,5.93
2023-02-03T02:00:01.454Z,6.75
2023-02-03T02:02:30.863Z,7.03
2023-02-03T02:05:04.841Z,5.80
2023-02-03T02:07:35.443Z,6.38
2023-02-03T02:10:07.995Z,5.72
2023-02-03T02:12:36.101Z,5.65
2023-02-03T02:15:06.759Z,7.35
2023-02-03T02:17:50.079Z,5.43
2023-02-03T02:20:50.326Z,4.85
2023-02-03T02:23:41.234Z,4.85
2023-02-03T02:26:26.482Z,5.95
2023-02-03T02:29:09.248Z,5.60
2023-02-03T02:31:58.453Z,5.25
2023-02-03T02:34:38.451Z,5.90
2023-02-03T02:37:10.930Z,6.18
2023-02-03T02:39:41.751Z,5.95
2023-02-03T02:42:15.652Z,6.13
2023-02-03T02:44:48.012Z,6.07
2023-02-03T02:47:19.990Z,6.70
2023-02-03T02:49:53.925Z,6.40
2023-02-03T02:52:23.094Z,6.45
2023-02-03T02:54:55.324Z,6.53
2023-02-03T02:59:51.478Z,5.82
2023-02-03T03:02:21.222Z,6.47
2023-02-03T03:04:51.258Z,6.30
2023-02-03T03:07:22.273Z,6.13
2023-02-03T03:09:52.513Z,5.85
2023-02-03T03:12:23.589Z,6.43
2023-02-03T03:14:55.167Z,6.87
2023-02-03T03:17:27.604Z,6.00
2023-02-03T03:19:57.679Z,6.53
2023-02-03T03:22:28.447Z,7.20
2023-02-03T03:25:00.068Z,7.18
2023-02-03T03:27:32.422Z,7.43
2023-02-03T03:30:03.252Z,7.10
2023-02-03T03:32:36.308Z,6.78
2023-02-03T03:35:09.566Z,7.68
2023-02-03T03:37:39.848Z,6.70
2023-02-03T03:40:15.064Z,7.90
2023-02-03T03:42:47.440Z,7.97
2023-02-03T03:45:18.445Z,8.60
2023-02-03T03:47:51.440Z,8.55
2023-02-03T03:50:21.281Z,8.75
2023-02-03T03:52:50.715Z,10.00
2023-02-03T03:55:20.709Z,11.40
2023-02-03T03:57:56.660Z,11.45
2023-02-03T04:00:27.253Z,12.25
2023-02-03T04:02:58.287Z,11.85
2023-02-03T04:05:28.809Z,13.55
2023-02-03T04:07:56.982Z,12.73
2023-02-03T04:10:32.661Z,14.38
2023-02-03T04:13:01.214Z,13.57
2023-02-03T04:15:29.738Z,14.18
2023-02-03T04:18:01.403Z,15.57
2023-02-03T04:20:30.037Z,16.20
2023-02-03T04:22:59.039Z,16.98
2023-02-03T04:25:27.358Z,17.45
2023-02-03T04:27:55.841Z,18.00
2023-02-03T04:30:24.355Z,18.88
2023-02-03T04:32:52.802Z,20.15
2023-02-03T04:35:22.287Z,21.75
2023-02-03T04:37:50.557Z,25.10
2023-02-03T04:40:19.283Z,22.92
2023-02-03T04:42:47.320Z,25.70
2023-02-03T04:45:15.547Z,26.20
2023-02-03T04:47:43.616Z,27.45
2023-02-03T04:50:12.087Z,27.60
2023-02-03T04:52:41.686Z,28.67
2023-02-03T04:55:10.396Z,29.23
2023-02-03T04:57:38.781Z,28.63
2023-02-03T05:00:11.539Z,28.98
2023-02-03T05:02:41.387Z,32.55
2023-02-03T05:05:10.681Z,32.05
2023-02-03T05:07:38.777Z,32.22
2023-02-03T05:10:09.226Z,32.90
2023-02-03T05:12:38.648Z,35.20
2023-02-03T05:15:10.229Z,31.98
2023-02-03T05:17:40.017Z,33.58
2023-02-03T05:20:09.616Z,31.95
2023-02-03T05:22:37.862Z,34.05
2023-02-03T05:25:09.738Z,34.40
2023-02-03T05:27:39.327Z,34.65
2023-02-03T05:30:08.785Z,33.35
2023-02-03T05:32:36.826Z,31.83
2023-02-03T05:35:05.357Z,33.13
2023-02-03T05:37:33.676Z,31.92
2023-02-03T05:40:15.661Z,32.72
2023-02-03T05:42:50.384Z,31.90
2023-02-03T05:45:19.718Z,33.05
2023-02-03T05:47:47.802Z,32.58
2023-02-03T05:50:16.996Z,31.88
2023-02-03T05:52:45.297Z,33.97
2023-02-03T05:55:14.546Z,32.95
2023-02-03T05:57:43.885Z,32.03
2023-02-03T06:00:15.238Z,32.15
2023-02-03T06:02:55.640Z,30.80
2023-02-03T06:05:24.948Z,30.80
2023-02-03T06:07:53.874Z,31.20
2023-02-03T06:10:22.900Z,31.48
2023-02-03T06:12:51.165Z,33.22
2023-02-03T06:15:20.606Z,31.88
2023-02-03T06:17:50.047Z,31.85
2023-02-03T06:20:23.213Z,32.55
2023-02-03T06:22:51.474Z,31.27
2023-02-03T06:25:19.963Z,33.25
2023-02-03T06:27:48.187Z,31.67
2023-02-03T06:30:16.587Z,31.08
2023-02-03T06:32:48.045Z,31.13
2023-02-03T06:35:16.192Z,27.80
2023-02-03T06:37:44.203Z,27.15
2023-02-03T06:40:13.726Z,26.20
2023-02-03T06:42:41.813Z,29.17
2023-02-03T06:45:11.152Z,28.02
2023-02-03T06:47:41.004Z,29.15
2023-02-03T06:50:12.593Z,29.27
2023-02-03T06:52:41.137Z,27.35
2023-02-03T06:55:12.109Z,28.08
2023-02-03T06:57:46.817Z,28.35
2023-02-03T07:00:18.805Z,27.60
2023-02-03T07:02:47.664Z,27.25
2023-02-03T07:05:17.066Z,27.92
2023-02-03T07:07:45.163Z,28.83
2023-02-03T07:10:13.206Z,28.15
2023-02-03T07:12:41.522Z,26.98
2023-02-03T07:15:10.981Z,25.33
2023-02-03T07:17:39.247Z,27.52
2023-02-03T07:20:08.326Z,28.70
2023-02-03T07:22:42.448Z,26.70
2023-02-03T07:25:17.179Z,27.00
2023-02-03T07:27:47.845Z,26.52
2023-02-03T07:30:17.713Z,27.23
2023-02-03T07:32:48.966Z,28.08
2023-02-03T07:35:18.934Z,28.25
2023-02-03T07:37:48.853Z,24.92
2023-02-03T07:40:18.950Z,28.45
2023-02-03T07:42:48.600Z,27.48
2023-02-03T07:45:19.759Z,25.70
2023-02-03T07:47:47.911Z,26.15
2023-02-03T07:50:17.250Z,25.80
2023-02-03T07:52:48.007Z,26.05
2023-02-03T07:55:19.507Z,24.73
2023-02-03T07:57:47.780Z,28.23
2023-02-03T08:00:17.247Z,24.20
2023-02-03T08:02:45.664Z,23.27
2023-02-03T08:05:15.575Z,23.85
2023-02-03T08:07:44.389Z,24.83
2023-02-03T08:10:15.976Z,22.83
2023-02-03T08:12:45.366Z,21.88
2023-02-03T08:15:14.283Z,23.05
2023-02-03T08:17:42.514Z,24.70
2023-02-03T08:20:11.696Z,22.42
2023-02-03T08:22:39.795Z,22.88
2023-02-03T08:25:09.221Z,23.38
2023-02-03T08:27:39.767Z,24.13
2023-02-03T08:30:09.914Z,23.95
2023-02-03T08:32:38.085Z,21.25
2023-02-03T08:35:07.612Z,24.08
2023-02-03T08:37:36.046Z,23.33
2023-02-03T08:40:04.679Z,23.00
2023-02-03T08:42:32.890Z,22.83
2023-02-03T08:45:05.090Z,22.15
2023-02-03T08:47:34.156Z,20.50
2023-02-03T08:50:05.496Z,21.90
2023-02-03T08:52:33.851Z,20.88
2023-02-03T08:55:03.531Z,21.02
2023-02-03T08:57:34.530Z,20.30
2023-02-03T09:00:06.198Z,20.30
2023-02-03T09:02:35.423Z,18.67
2023-02-03T09:05:03.808Z,19.85
2023-02-03T09:07:35.537Z,17.77
2023-02-03T09:10:04.091Z,17.75
2023-02-03T09:12:32.095Z,15.65
2023-02-03T09:15:00.124Z,15.60
2023-02-03T09:17:29.738Z,15.68
2023-02-03T09:19:57.955Z,14.82
2023-02-03T09:22:26.478Z,14.38
2023-02-03T09:24:59.730Z,13.30
2023-02-03T09:27:28.103Z,15.07
2023-02-03T09:29:56.708Z,13.77
2023-02-03T09:32:26.385Z,14.05
2023-02-03T09:34:57.473Z,13.85
2023-02-03T09:37:25.842Z,13.63
2023-02-03T09:39:53.983Z,14.52
2023-02-03T09:42:33.854Z,13.48
2023-02-03T09:45:10.372Z,13.93
2023-02-03T09:47:41.038Z,13.50
2023-02-03T09:50:14.885Z,12.35
2023-02-03T09:52:44.445Z,11.93
2023-02-03T09:55:22.355Z,11.07
2023-02-03T09:57:57.003Z,10.77
2023-02-03T10:00:29.135Z,10.40
2023-02-03T10:05:36.455Z,8.90
2023-02-03T10:08:09.704Z,8.23
2023-02-03T10:10:41.140Z,9.10
2023-02-03T10:13:19.074Z,9.07
2023-02-03T10:16:05.368Z,7.82
2023-02-03T10:18:38.017Z,7.70
2023-02-03T10:21:14.946Z,6.07
2023-02-03T10:23:45.381Z,7.68
2023-02-03T10:26:18.760Z,6.20
2023-02-03T10:28:50.148Z,6.35
2023-02-03T10:31:20.884Z,5.57
2023-02-03T10:33:57.763Z,5.32
2023-02-03T10:36:34.642Z,5.32
2023-02-03T10:39:09.002Z,5.35
2023-02-03T10:41:37.409Z,4.22
2023-02-03T10:44:09.596Z,5.40
2023-02-03T10:46:40.558Z,4.50
2023-02-03T10:49:09.708Z,4.18
2023-02-03T10:51:47.233Z,3.60
2023-02-03T10:54:30.243Z,3.80
2023-02-03T10:57:03.809Z,3.38
2023-02-03T10:59:36.703Z,3.78
2023-02-03T11:02:10.807Z,2.53
2023-02-03T11:04:39.066Z,2.15
2023-02-03T11:07:12.845Z,2.15
2023-02-03T11:09:43.596Z,2.22
2023-02-03T11:12:14.839Z,2.75
2023-02-03T11:14:45.815Z,2.08
2023-02-03T11:17:19.584Z,2.92
2023-02-03T11:19:48.853Z,2.72
2023-02-03T11:22:29.531Z,2.45
2023-02-03T11:24:58.705Z,2.60
2023-02-03T11:27:27.819Z,2.30
2023-02-03T11:30:11.527Z,2.67
2023-02-03T11:32:45.587Z,2.40
2023-02-03T11:35:17.606Z,3.67
2023-02-03T11:37:48.276Z,2.90
2023-02-03T11:40:26.140Z,3.08
2023-02-03T11:43:07.276Z,3.25
2023-02-03T11:45:41.811Z,4.32
2023-02-03T11:48:29.304Z,3.33
2023-02-03T11:51:02.590Z,3.63
2023-02-03T11:53:56.560Z,4.22
2023-02-03T11:56:32.937Z,3.28
2023-02-03T11:59:15.604Z,4.63
2023-02-03T12:02:06.814Z,4.38
2023-02-03T12:05:14.295Z,4.50
2023-02-03T12:07:52.247Z,4.88
2023-02-03T12:10:37.113Z,5.85
2023-02-03T12:13:14.898Z,4.93
2023-02-03T12:16:00.664Z,4.88
2023-02-03T12:18:34.855Z,4.20
2023-02-03T12:21:14.972Z,6.43
2023-02-03T12:23:52.041Z,6.18
2023-02-03T12:26:25.245Z,6.32
2023-02-03T12:28:58.790Z,4.53
2023-02-03T12:31:36.044Z,4.82
2023-02-03T12:34:13.516Z,5.13
2023-02-03T12:36:44.474Z,4.78
2023-02-03T12:39:17.154Z,5.25
2023-02-03T12:41:50.974Z,6.13
2023-02-03T12:44:22.489Z,5.50
2023-02-03T12:46:52.730Z,6.93
2023-02-03T12:49:33.663Z,5.43
2023-02-03T12:52:05.090Z,6.60
2023-02-03T12:54:40.536Z,5.70
2023-02-03T12:57:21.823Z,5.63
2023-02-03T12:59:58.903Z,5.70
2023-02-03T13:02:30.193Z,6.30
2023-02-03T13:05:01.409Z,5.63
2023-02-03T13:07:36.280Z,2.23
2023-02-03T13:10:08.420Z,3.58
2023-02-03T13:15:17.208Z,2.00
2023-02-03T13:17:50.139Z,2.30
2023-02-03T13:20:21.486Z,3.88
2023-02-03T13:22:52.324Z,2.73
2023-02-03T13:25:24.900Z,2.88
2023-02-03T13:28:00.667Z,2.33
2023-02-03T13:30:48.204Z,1.92
2023-02-03T13:33:41.041Z,2.83
2023-02-03T13:36:22.525Z,3.33
2023-02-03T13:39:13.555Z,3.25
2023-02-03T13:41:46.610Z,3.17
2023-02-03T13:44:19.492Z,3.67
2023-02-03T13:46:49.204Z,3.08
2023-02-03T13:49:24.132Z,4.05
2023-02-03T13:51:52.449Z,3.58
2023-02-03T13:54:26.811Z,2.83
2023-02-03T13:56:58.883Z,2.95
2023-02-03T13:59:41.858Z,4.03
2023-02-03T14:02:39.778Z,3.45
2023-02-03T14:05:09.670Z,4.90
2023-02-03T14:07:39.166Z,5.57
2023-02-03T14:10:17.042Z,6.18
2023-02-03T14:12:59.788Z,5.45
2023-02-03T14:15:34.189Z,6.05
2023-02-03T14:18:06.684Z,6.25
2023-02-03T14:21:07.139Z,5.90
2023-02-03T14:23:41.593Z,6.05
2023-02-03T14:26:17.205Z,6.93
2023-02-03T14:28:46.612Z,6.55
2023-02-03T14:31:24.896Z,6.55
2023-02-03T14:34:07.830Z,6.10
2023-02-03T14:36:54.913Z,5.43
2023-02-03T14:40:02.239Z,6.88
2023-02-03T14:42:40.572Z,6.63
2023-02-03T14:45:18.177Z,6.20
2023-02-03T14:47:56.206Z,6.68
2023-02-03T14:50:32.882Z,7.20
2023-02-03T14:53:14.629Z,6.63
2023-02-03T14:55:49.538Z,5.38
2023-02-03T14:58:25.032Z,5.13
2023-02-03T15:00:54.936Z,6.85
2023-02-03T15:03:27.684Z,6.38
2023-02-03T15:05:58.821Z,6.68
2023-02-03T15:08:36.564Z,6.45
2023-02-03T15:11:23.072Z,5.15
2023-02-03T15:13:51.981Z,7.13
2023-02-03T15:16:21.715Z,4.60
2023-02-03T15:18:58.445Z,5.55
2023-02-03T15:21:27.069Z,5.30
2023-02-03T15:23:55.651Z,5.47
2023-02-03T15:26:27.187Z,5.55
2023-02-03T15:28:56.792Z,4.82
2023-02-03T15:31:32.201Z,4.43
2023-02-03T15:34:08.643Z,4.57
2023-02-03T15:36:42.003Z,4.70
2023-02-03T15:39:20.814Z,4.63
2023-02-03T15:41:52.011Z,4.47
2023-02-03T15:44:28.259Z,5.45
2023-02-03T15:46:56.764Z,5.85
2023-02-03T15:49:29.671Z,6.03
2023-02-03T15:52:00.643Z,6.45
2023-02-03T15:54:31.678Z,5.30
2023-02-03T15:57:01.723Z,5.60
2023-02-03T15:59:34.545Z,4.30
2023-02-03T16:02:08.589Z,5.10
2023-02-03T16:04:40.726Z,5.18
2023-02-03T16:07:17.907Z,6.25
2023-02-03T16:09:46.148Z,6.20
2023-02-03T16:12:19.909Z,5.82
2023-02-03T16:14:47.947Z,6.10
2023-02-03T16:17:26.365Z,5.60
2023-02-03T16:20:24.781Z,6.97
2023-02-03T16:23:06.923Z,6.03
2023-02-03T16:25:36.067Z,5.13
2023-02-03T16:28:32.817Z,6.03
2023-02-03T16:31:21.228Z,6.18
2023-02-03T16:34:08.837Z,5.65
2023-02-03T16:37:02.066Z,5.88
2023-02-03T16:39:49.006Z,5.57
2023-02-03T16:42:36.135Z,5.15
2023-02-03T16:45:22.553Z,6.20
2023-02-03T16:48:08.651Z,5.07
2023-02-03T16:50:53.235Z,5.88
2023-02-03T16:53:25.029Z,6.47
2023-02-03T16:55:55.830Z,5.80
2023-02-03T16:58:24.445Z,5.50
2023-02-03T17:00:55.002Z,5.95
2023-02-03T17:03:25.187Z,7.28
2023-02-03T17:05:53.350Z,7.25
2023-02-03T17:08:24.600Z,4.90
2023-02-03T17:10:54.207Z,5.03
2023-02-03T17:13:26.746Z,4.88
2023-02-03T17:15:55.316Z,5.97
2023-02-03T17:18:23.786Z,5.00
2023-02-03T17:20:52.893Z,4.88
2023-02-03T17:23:24.942Z,4.20
2023-02-03T17:25:53.250Z,5.97
2023-02-03T17:28:21.303Z,5.90
2023-02-03T17:30:57.740Z,5.40
2023-02-03T17:33:25.866Z,5.75
2023-02-03T17:36:02.790Z,4.63
2023-02-03T17:55:13.040Z,4.93
2023-02-03T17:57:41.688Z,6.38
2023-02-03T18:00:11.160Z,4.72
2023-02-03T18:02:39.868Z,5.22
2023-02-03T18:05:08.932Z,7.28
2023-02-03T18:07:37.263Z,5.65
2023-02-03T18:10:06.109Z,6.45
2023-02-03T18:12:35.743Z,5.13
2023-02-03T18:15:04.248Z,5.57
2023-02-03T18:17:33.096Z,5.55
2023-02-03T18:20:02.633Z,4.97
2023-02-03T18:22:31.087Z,5.40
2023-02-03T18:24:59.244Z,6.00
2023-02-03T18:27:27.826Z,3.83
2023-02-03T18:29:57.643Z,6.20
2023-02-03T18:32:26.066Z,5.25
2023-02-03T18:34:54.846Z,5.55
2023-02-03T18:37:23.596Z,6.70
2023-02-03T18:39:51.867Z,5.85
2023-02-03T18:42:19.802Z,6.40
2023-02-03T18:44:52.370Z,5.25
2023-02-03T18:47:22.678Z,5.97
2023-02-03T18:49:53.225Z,5.07
2023-02-03T18:52:22.280Z,5.72
2023-02-03T18:54:52.351Z,5.30
2023-02-03T18:57:22.611Z,5.95
2023-02-03T18:59:51.153Z,7.22
2023-02-03T19:02:25.857Z,6.75
2023-02-03T19:04:53.899Z,5.68
2023-02-03T19:07:21.949Z,4.57
2023-02-03T19:09:49.940Z,5.38
2023-02-03T19:12:18.163Z,5.65
2023-02-03T19:14:46.275Z,5.60
2023-02-03T19:17:14.501Z,5.47
2023-02-03T19:19:44.491Z,5.88
2023-02-03T19:22:12.912Z,5.60
2023-02-03T19:24:41.192Z,4.45
2023-02-03T19:27:09.917Z,4.85
2023-02-03T19:29:39.823Z,4.80
2023-02-03T19:32:09.731Z,6.35
2023-02-03T19:34:37.801Z,5.32
2023-02-03T19:37:07.717Z,4.35
2023-02-03T19:39:36.625Z,4.55
2023-02-03T19:42:07.601Z,4.22
2023-02-03T19:44:37.042Z,4.28
2023-02-03T19:47:05.446Z,3.83
2023-02-03T19:49:34.858Z,3.33
2023-02-03T19:52:02.854Z,3.72
2023-02-03T19:54:33.240Z,4.25
2023-02-03T19:57:02.185Z,3.08
2023-02-03T19:59:33.463Z,2.92
2023-02-03T20:02:12.594Z,3.92
2023-02-03T20:04:42.067Z,3.28
2023-02-03T20:07:10.962Z,2.83
2023-02-03T20:09:40.630Z,2.72
2023-02-03T20:12:08.865Z,2.60
2023-02-03T20:14:36.907Z,2.63
2023-02-03T20:17:06.305Z,2.40
2023-02-03T20:19:34.721Z,2.53
2023-02-03T20:22:04.002Z,3.35
2023-02-03T20:24:32.392Z,3.17
2023-02-03T20:27:02.411Z,3.08
2023-02-03T20:29:30.400Z,2.92
2023-02-03T20:31:58.990Z,2.45
2023-02-03T20:34:28.480Z,3.53
2023-02-03T20:36:58.748Z,2.33
2023-02-03T20:39:27.119Z,3.15
2023-02-03T20:41:55.910Z,3.42
2023-02-03T20:44:25.326Z,3.00
2023-02-03T20:46:58.147Z,2.90
2023-02-03T20:49:28.526Z,3.42
2023-02-03T20:51:56.538Z,3.85
2023-02-03T20:54:24.949Z,2.20
2023-02-03T20:56:53.123Z,3.17
2023-02-03T20:59:21.238Z,3.28
2023-02-03T21:01:51.251Z,3.60
2023-02-03T21:04:38.297Z,2.58
2023-02-03T21:07:14.821Z,3.28
2023-02-03T21:09:42.989Z,2.65
2023-02-03T21:12:12.950Z,2.80
2023-02-03T21:14:44.259Z,3.17
2023-02-03T21:17:21.429Z,3.50
2023-02-03T21:19:50.639Z,3.88
2023-02-03T21:22:23.725Z,2.20
2023-02-03T21:24:53.890Z,3.63
2023-02-03T21:27:27.657Z,2.65
2023-02-03T21:29:57.510Z,1.27
2023-02-03T21:32:33.930Z,1.42
2023-02-03T21:35:02.183Z,1.15
2023-02-03T21:37:39.295Z,1.23
2023-02-03T21:40:19.749Z,1.30
2023-02-03T21:42:49.486Z,1.02
2023-02-03T21:45:35.565Z,1.25
2023-02-03T21:48:25.229Z,1.23
2023-02-03T21:50:54.103Z,1.45
2023-02-03T21:53:26.797Z,1.00
2023-02-03T21:55:55.181Z,0.90
2023-02-03T21:58:25.429Z,0.93
2023-02-03T22:00:54.207Z,0.90
2023-02-03T22:03:29.859Z,1.13
2023-02-03T22:06:14.413Z,1.00
2023-02-03T22:08:44.753Z,1.30
2023-02-03T22:11:13.601Z,0.93
2023-02-03T22:13:42.917Z,1.00
2023-02-03T22:16:14.711Z,0.75
2023-02-03T22:18:44.287Z,0.95
2023-02-03T22:21:12.591Z,0.57
2023-02-03T22:23:42.026Z,0.90
2023-02-03T22:26:11.363Z,0.90
2023-02-03T22:28:40.252Z,0.82
2023-02-03T22:31:09.289Z,0.85
2023-02-03T22:33:37.769Z,1.00
2023-02-03T22:36:10.353Z,1.02
2023-02-03T22:38:39.319Z,0.90
2023-02-03T22:41:08.824Z,1.42
2023-02-03T22:43:38.357Z,1.08
2023-02-03T22:46:07.571Z,0.80
2023-02-03T22:48:37.349Z,1.30
2023-02-03T22:51:07.021Z,1.25
2023-02-03T22:53:35.733Z,0.90
2023-02-03T22:56:04.163Z,1.13
2023-02-03T22:58:32.309Z,0.93
2023-02-03T23:01:00.830Z,1.13
2023-02-03T23:03:31.996Z,1.27
2023-02-03T23:06:00.279Z,1.00
2023-02-03T23:08:29.608Z,0.95
2023-02-03T23:10:58.700Z,1.25
2023-02-03T23:13:27.330Z,1.30
2023-02-03T23:15:55.686Z,1.30
2023-02-03T23:18:24.303Z,1.70
2023-02-03T23:20:52.386Z,1.50
2023-02-03T23:23:20.639Z,1.48
2023-02-03T23:25:50.016Z,1.73
2023-02-03T23:28:18.174Z,2.45
2023-02-03T23:30:47.774Z,2.03
2023-02-03T23:33:16.003Z,1.85
2023-02-03T23:35:46.225Z,2.10
2023-02-03T23:38:14.901Z,1.73
2023-02-03T23:40:43.514Z,2.10
2023-02-03T23:43:13.266Z,2.15
2023-02-03T23:45:41.587Z,2.15
2023-02-03T23:48:09.776Z,2.10
2023-02-03T23:50:38.091Z,2.35
2023-02-03T23:53:06.482Z,2.22
2023-02-03T23:55:36.653Z,2.00
2023-02-03T23:58:06.184Z,2.05
